NOAA/GLERL Met Station at Michigan City, IN

Previous 5 days (top of hour only)
See also Previous 3 Hours (2 minute increments)
Jump down to Data
Switch to [English][Metric]
Zoom: Click and drag, Pan: shift-click and drag, Unzoom: double-click, Unzoom All






Note: Speed = mean wind during 2-minute period at top of hour,
Gust = max wind during 2-minute period at top of hour,
Peak = max wind during entire hour.
• See also 5-day windrose plot


NOAA/GLERL Met Station at Michigan City, IN

Previous 5 days (top of hour only)
See also Previous 3 Hours (2 minute increments)
Jump up to Graphs
Switch to [English][Metric]
                  Wind  Wind  Wind   Air   Dew   Rel     Sta   PAR
                   Spd   Gst   Dir  Temp    Pt   Hum    Pres uE/m2/
YYYY-MM-DD   CST   kts   kts   deg     F     F     %   in Hg   sec
2017-02-20 00:00   6.0   6.8   102  51.6  23.9  33.5    0.00     0
2017-02-19 23:00   7.0   7.8   100  51.8  22.5  31.4    0.00     0
2017-02-19 22:00   5.2   5.4   109  51.3  22.8  32.5    0.00     0
2017-02-19 21:00   4.9   5.1   117  50.5  25.7  37.6    0.00     0
2017-02-19 20:00   5.8   6.4   116  52.7  26.5  35.9    0.00     0
2017-02-19 19:00   2.5   3.3    80  53.1  27.5  36.8    0.00     0
2017-02-19 18:00   3.3   4.1    92  54.7  27.6  34.8    0.00     0
2017-02-19 17:00   6.4   7.0    49  48.0  30.0  49.3    0.00     0
2017-02-19 16:00  11.1  11.3    28  42.1  33.0  70.0    0.00     0
2017-02-19 15:00   7.8   7.8    24  41.9  33.2  70.9    0.00     0
2017-02-19 14:00   5.1   5.2    19  41.5  33.3  72.2    0.00     0
2017-02-19 13:00   3.9   5.4   328  45.9  34.5  64.3    0.00     0
2017-02-19 12:00   6.8   8.0   311  46.8  35.5  64.6    0.00     0
2017-02-19 11:00   5.6   6.0   259  47.1  36.4  66.1    0.00     0
2017-02-19 10:00   4.9   5.1   233  45.0  36.7  72.5    0.00     0
2017-02-19 09:00   4.5   4.9   200  45.3  36.5  71.0    0.00     0
2017-02-19 08:00   3.7   4.1   188  42.8  35.2  74.1    0.00     0
2017-02-19 07:00   4.5   4.9   186  42.1  34.1  72.9    0.00     0
2017-02-19 06:00   5.4   5.8   202  42.3  33.1  69.6    0.00     0
2017-02-19 05:00   4.3   4.7   193  44.8  33.2  63.4    0.00     0
2017-02-19 04:00   4.9   5.4   163  41.9  33.6  72.1    0.00     0
2017-02-19 03:00   4.1   4.5   164  41.0  32.3  70.8    0.00     0
2017-02-19 02:00   4.3   4.3   177  41.2  32.9  72.1    0.00     0
2017-02-19 01:00   4.3   4.5   206  39.7  31.8  73.0    0.00     0
2017-02-19 00:00   7.2   8.0   217  39.9  30.3  68.2    0.00     0
2017-02-18 23:00   2.1   2.1   163  48.0  32.0  53.5    0.00     0
2017-02-18 22:00   3.7   4.1    97  54.0  32.3  43.3    0.00     0
2017-02-18 21:00   4.9   5.2   101  53.4  30.5  41.1    0.00     0
2017-02-18 20:00   7.0   8.0    34  54.0  28.1  36.5    0.00     0
2017-02-18 19:00   5.2   5.4    45  53.6  29.0  38.4    0.00     0
2017-02-18 18:00  12.2  12.4    30  51.6  31.3  45.4    0.00     0
2017-02-18 17:00   9.1   9.5    40  54.3  30.3  39.4    0.00     0
2017-02-18 16:00   6.8   7.2    37  54.0  33.1  44.7    0.00     0
2017-02-18 15:00   3.9   4.1     8  50.7  34.4  53.2    0.00     0
2017-02-18 14:00   3.9   4.1   218  53.8  35.2  49.1    0.00     0
2017-02-18 13:00   6.8   7.0   237  55.4  35.2  46.2    0.00     0
2017-02-18 12:00   4.7   5.4   230  47.5  35.2  62.1    0.00     0
2017-02-18 11:00   4.7   5.6   205  44.1  34.0  67.3    0.00     0
2017-02-18 10:00  11.3  14.0   237  52.3  36.0  53.4    0.00     0
2017-02-18 09:00  17.1  18.3   206  47.7  34.7  60.4    0.00     0
2017-02-18 08:00   9.7  10.5   190  48.4  35.1  59.7    0.00     0
2017-02-18 07:00  11.1  13.0   182  49.1  35.0  57.9    0.00     0
2017-02-18 06:00  12.8  14.8   181  49.8  35.0  56.4    0.00     0
2017-02-18 05:00  16.3  18.5   183  50.4  35.1  55.4    0.00     0
2017-02-18 04:00  14.8  16.5   174  50.0  35.5  57.1    0.00     0
2017-02-18 03:00  15.6  17.5   179  52.2  34.9  51.5    0.00     0
2017-02-18 02:00  18.5  20.8   179  53.6  34.5  48.0    0.00     0
2017-02-18 01:00  18.5  21.2   181  54.3  34.5  46.8    0.00     0
2017-02-18 00:00  18.3  22.4   178  55.4  33.9  43.9    0.00     0
2017-02-17 23:00  19.2  21.4   184  56.5  34.4  43.0    0.00     0
2017-02-17 22:00  16.7  19.4   177  56.7  35.3  44.2    0.00     0
2017-02-17 21:00  18.3  20.4   175  58.6  35.7  41.9    0.00     0
2017-02-17 20:00  17.3  20.0   175  59.9  36.9  42.0    0.00     0
2017-02-17 19:00  16.1  18.3   178  61.7  37.7  40.5    0.00     0
2017-02-17 18:00  11.9  14.0   174  62.1  38.3  41.0    0.00     0
2017-02-17 17:00  13.0  15.2   182  63.3  38.5  39.5    0.00     0
2017-02-17 16:00  17.3  20.4   183  63.9  37.3  37.0    0.00     0
2017-02-17 15:00  17.1  19.6   187  63.0  36.1  36.4    0.00     0
2017-02-17 14:00   5.6   8.7   184  55.9  34.3  43.6    0.00     0
2017-02-17 13:00   3.7   4.9   259  50.2  32.5  50.3    0.00     0
2017-02-17 12:00   4.5   4.9   221  51.1  32.4  48.4    0.00     0
2017-02-17 11:00   7.6   9.5   184  52.0  32.2  46.4    0.00     0
2017-02-17 10:00   8.2   8.9   171  46.2  31.3  55.6    0.00     0
2017-02-17 09:00   8.6   9.7   157  42.6  29.7  60.0    0.00     0
2017-02-17 08:00   4.5   5.4   125  38.7  28.4  66.3    0.00     0
2017-02-17 07:00   6.4   8.4   164  38.5  28.2  66.1    0.00     0
2017-02-17 06:00   8.2   9.7   144  37.4  27.4  66.8    0.00     0
2017-02-17 05:00   9.1  10.5   130  35.1  25.5  67.7    0.00     0
2017-02-17 04:00   9.3  10.5   125  35.8  24.8  64.0    0.00     0
2017-02-17 03:00  12.6  13.6   121  36.5  24.2  60.6    0.00     0
2017-02-17 02:00  11.1  12.4   122  36.9  23.7  58.6    0.00     0
2017-02-17 01:00  12.2  15.0   122  37.4  23.1  55.9    0.00     0
2017-02-17 00:00  11.3  15.4   122  37.2  22.6  55.1    0.00     0
2017-02-16 23:00  14.0  17.3   111  36.0  22.4  57.6    0.00     0
2017-02-16 22:00  10.5  14.2    94  36.3  21.6  54.9    0.00     0
2017-02-16 21:00  10.1  11.9   111  36.1  21.8  55.6    0.00     0
2017-02-16 20:00  10.1  11.7    61  35.4  21.5  56.6    0.00     0
2017-02-16 19:00   9.1  11.3    89  36.7  20.1  50.8    0.00     0
2017-02-16 18:00   5.6   7.0    90  37.0  20.7  51.2    0.00     0
2017-02-16 17:00   9.9  11.1   118  37.6  19.8  48.4    0.00     0
2017-02-16 16:00   8.6  10.5   113  37.9  19.6  47.2    0.00     0
2017-02-16 15:00  11.7  14.2   130  37.2  18.4  46.2    0.00     0
2017-02-16 14:00  13.0  15.0   123  35.2  17.3  47.6    0.00     0
2017-02-16 13:00   6.0   7.0   151  34.3  18.7  52.4    0.00     0
2017-02-16 12:00   4.7   6.4   169  32.7  18.7  56.0    0.00     0
2017-02-16 11:00   1.7   2.1   269  32.2  18.4  56.4    0.00     0
2017-02-16 10:00   0.8   1.2   335  32.4  18.3  55.9    0.00     0
2017-02-16 09:00   1.9   2.3    35  30.6  17.5  58.1    0.00     0
2017-02-16 08:00   5.1   5.4     4  30.4  17.0  57.3    0.00     0
2017-02-16 07:00   8.4   9.3   357  30.4  18.7  61.6    0.00     0
2017-02-16 06:00   9.5  10.7   324  30.4  19.0  62.3    0.00     0
2017-02-16 05:00   9.9  11.5   319  30.2  19.2  63.2    0.00     0
2017-02-16 04:00  14.0  14.8   322  30.2  19.8  64.8    0.00     0
2017-02-16 03:00  13.8  15.2   327  30.0  18.2  61.2    0.00     0
2017-02-16 02:00  13.4  14.2   322  29.8  17.7  60.3    0.00     0
2017-02-16 01:00  16.1  17.3   331  30.0  18.7  62.4    0.00     0
2017-02-16 00:00  16.7  18.1   313  30.7  17.3  57.1    0.00     0
2017-02-15 23:00  16.9  19.8   314  31.3  15.2  51.1    0.00     0
2017-02-15 22:00  18.5  20.6   312  31.6  14.9  49.7    0.00     0
2017-02-15 21:00  15.6  16.7   311  31.8  17.0  54.0    0.00     0
2017-02-15 20:00  15.4  17.5   302  32.0  18.5  57.0    0.00     0
2017-02-15 19:00  12.8  14.4   301  31.6  18.9  58.9    0.00     0
2017-02-15 18:00  12.8  13.6   315  30.6  18.3  60.0    0.00     0